Flight Track Log - Related Links

Times and Time Zones

All times are in EDT time to prevent confusion due to time zone crossing. See the CSN6338 flight status page for this flight to view local times or setup timezone preferences in your user account.

Time Position Orientation Groundspeed Altitude Reporting Facility
EDT Latitude Longitude Course Direction KTS MPH feet Rate Location/Type
Sat 07:30:00 AM 38.8689 121.4827 204° Southwest  Level Estimated
Sat 07:31:00 AM 38.7721 121.4270 204° Southwest  Level Estimated
Sat 07:32:00 AM 38.6753 121.3714 204° Southwest  Level Estimated
Sat 07:33:00 AM 38.5785 121.3159 204° Southwest  Level Estimated
Sat 07:34:00 AM 38.4816 121.2607 204° Southwest  Level Estimated
Sat 07:35:00 AM 38.3847 121.2055 204° Southwest  Level Estimated
Sat 07:36:00 AM 38.2878 121.1505 204° Southwest  Level Estimated
Sat 07:37:00 AM 38.1909 121.0957 204° Southwest  Level Estimated
Sat 07:38:00 AM 38.0939 121.0410 204° Southwest  Level Estimated
Sat 07:39:00 AM 37.9969 120.9864 204° Southwest  Level Estimated
Sat 07:40:00 AM 37.8999 120.9320 204° Southwest  Level Estimated
Sat 07:41:00 AM 37.8029 120.8777 204° Southwest  Level Estimated
Sat 07:42:00 AM 37.7058 120.8236 204° Southwest  Level Estimated
Sat 07:43:00 AM 37.6087 120.7696 204° Southwest  Level Estimated
Sat 07:44:00 AM 37.5116 120.7158 204° Southwest  Level Estimated
Sat 07:45:00 AM 37.4145 120.6620 204° Southwest  Level Estimated
Sat 07:46:00 AM 37.3173 120.6085 204° Southwest  Level Estimated
Sat 07:47:00 AM 37.2201 120.5550 204° Southwest  Level Estimated
Sat 07:48:00 AM 37.1229 120.5017 204° Southwest  Level Estimated
Sat 07:49:00 AM 37.0257 120.4486 204° Southwest  Level Estimated
Sat 07:50:00 AM 36.9284 120.3956 204° Southwest  Level Estimated
Sat 07:51:00 AM 36.8311 120.3427 204° Southwest  Level Estimated
Sat 07:52:00 AM 36.7338 120.2899 203° Southwest  Level Estimated
Sat 07:53:00 AM 36.6365 120.2373 203° Southwest  Level Estimated
Sat 07:54:00 AM 36.5391 120.1849 203° Southwest  Level Estimated
Sat 07:55:00 AM 36.4418 120.1325 203° Southwest  Level Estimated
Sat 07:56:00 AM 36.3444 120.0803 203° Southwest  Level Estimated
Sat 07:57:00 AM 36.2469 120.0282 203° Southwest  Level Estimated
Sat 07:58:00 AM 36.1495 119.9762 203° Southwest  Level Estimated
Sat 07:59:00 AM 36.0520 119.9244 203° Southwest  Level Estimated
Sat 08:00:00 AM 35.9545 119.8727 203° Southwest  Level Estimated
Sat 08:01:00 AM 35.8570 119.8211 203° Southwest  Level Estimated
Sat 08:02:00 AM 35.7595 119.7697 203° Southwest  Level Estimated
Sat 08:03:00 AM 35.6619 119.7184 203° Southwest  Level Estimated
Sat 08:04:00 AM 35.5644 119.6672 203° Southwest  Level Estimated
Sat 08:05:00 AM 35.4668 119.6161 203° Southwest  Level Estimated
Sat 08:06:00 AM 35.3692 119.5651 203° Southwest  Level Estimated
Sat 08:07:00 AM 35.2715 119.5143 203° Southwest  Level Estimated
Sat 08:08:00 AM 35.1739 119.4636 203° Southwest  Level Estimated
Sat 08:09:00 AM 35.0762 119.4130 203° Southwest  Level Estimated
Sat 08:10:00 AM 34.9785 119.3626 203° Southwest  Level Estimated
Sat 08:11:00 AM 34.8808 119.3122 203° Southwest  Level Estimated
Sat 08:12:00 AM 34.7830 119.2620 203° Southwest  Level Estimated
Sat 08:13:00 AM 34.6853 119.2119 203° Southwest  Level Estimated
Sat 08:14:00 AM 34.5875 119.1619 203° Southwest  Level Estimated
Sat 08:15:00 AM 34.4897 119.1121 203° Southwest  Level Estimated
Sat 08:16:00 AM 34.3918 119.0623 203° Southwest  Level Estimated
Sat 08:17:00 AM 34.2940 119.0127 203° Southwest  Level Estimated
Sat 08:18:00 AM 34.1961 118.9632 203° Southwest  Level Estimated
Sat 08:19:00 AM 34.0982 118.9138 203° Southwest  Level Estimated
Sat 08:20:00 AM 34.0003 118.8645 203° Southwest  Level Estimated
Sat 08:21:00 AM 33.9024 118.8153 203° Southwest  Level Estimated
Sat 08:22:00 AM 33.8045 118.7662 203° Southwest  Level Estimated
Sat 08:23:00 AM 33.7065 118.7173 203° Southwest  Level Estimated
Sat 08:24:00 AM 33.6085 118.6684 203° Southwest  Level Estimated
Sat 08:25:00 AM 33.5105 118.6197 203° Southwest  Level Estimated
Sat 08:26:00 AM 33.4125 118.5711 202° Southwest  Level Estimated
Sat 08:27:00 AM 33.3144 118.5226 202° Southwest  Level Estimated
Sat 08:28:00 AM 33.2164 118.4742 202° Southwest  Level Estimated
Sat 08:29:00 AM 33.1183 118.4259 202° Southwest  Level Estimated
Sat 08:30:00 AM 33.0202 118.3777 202° Southwest  Level Estimated
Sat 08:31:00 AM 32.9221 118.3297 202° Southwest  Level Estimated
Sat 08:32:00 AM 32.8240 118.2817 202° Southwest  Level Estimated
Sat 08:33:00 AM 32.7258 118.2338 202° Southwest  Level Estimated
Sat 08:34:00 AM 32.6277 118.1861 202° Southwest  Level Estimated
Sat 08:35:00 AM 32.5295 118.1384 202° Southwest  Level Estimated
Sat 08:36:00 AM 32.4313 118.0909 202° Southwest  Level Estimated
Sat 08:37:00 AM 32.3330 118.0434 202° Southwest  Level Estimated
Sat 08:38:00 AM 32.2348 117.9961 202° Southwest  Level Estimated
Sat 08:39:00 AM 32.1365 117.9488 202° Southwest  Level Estimated
Sat 08:40:00 AM 32.0382 117.9017 202° Southwest  Level Estimated
Sat 08:41:00 AM 31.9400 117.8547 202° Southwest  Level Estimated
Sat 08:42:00 AM 31.8417 117.8077 202° Southwest  Level Estimated
Sat 08:43:00 AM 31.7433 117.7609 202° Southwest  Level Estimated
Sat 08:44:00 AM 31.6450 117.7141 202° Southwest  Level Estimated
Sat 08:45:00 AM 31.5466 117.6675 202° Southwest  Level Estimated
Sat 08:46:00 AM 31.4482 117.6209 202° Southwest  Level Estimated
Sat 08:47:00 AM 31.3498 117.5745 202° Southwest  Level Estimated
Sat 08:48:00 AM 31.2514 117.5282 202° Southwest  Level Estimated
Sat 08:49:00 AM 31.1530 117.4819 202° Southwest  Level Estimated
Sat 08:50:00 AM 31.0545 117.4358 202° Southwest  Level Estimated
Sat 08:51:00 AM 30.9561 117.3897 202° Southwest  Level Estimated
Sat 08:52:00 AM 30.8576 117.3437 202° Southwest  Level Estimated
Sat 08:53:00 AM 30.7591 117.2979 202° Southwest  Level Estimated
Sat 08:54:00 AM 30.6606 117.2521 202° Southwest  Level Estimated
Sat 08:55:00 AM 30.5621 117.2064 202° Southwest  Level Estimated
Sat 08:56:00 AM 30.4635 117.1608 202° Southwest  Level Estimated
Sat 08:57:00 AM 30.3650 117.1153 202° Southwest  Level Estimated
Sat 08:58:00 AM 30.2664 117.0699 202° Southwest  Level Estimated
Sat 08:59:00 AM 30.1678 117.0246 202° Southwest  Level Estimated
Sat 09:00:00 AM 30.0692 116.9794 202° Southwest  Level Estimated
Sat 09:01:00 AM 29.9706 116.9343 202° Southwest  Level Estimated
Sat 09:02:00 AM 29.8719 116.8892 202° Southwest  Level Estimated
Sat 09:03:00 AM 29.7733 116.8443 202° Southwest  Level Estimated
Sat 09:04:00 AM 29.6746 116.7994 202° Southwest  Level Estimated
Sat 09:05:00 AM 29.5759 116.7546 202° Southwest  Level Estimated
Sat 09:06:00 AM 29.4772 116.7099 202° Southwest  Level Estimated
Sat 09:07:00 AM 29.3785 116.6653 201° Southwest  Level Estimated
Sat 09:08:00 AM 29.2798 116.6208 201° Southwest  Level Estimated
Sat 09:09:00 AM 29.1811 116.5764 201° Southwest  Level Estimated
Sat 09:10:00 AM 29.0823 116.5320 201° Southwest  Level Estimated
Sat 09:11:00 AM 28.9835 116.4878 201° Southwest  Level Estimated
Sat 09:12:00 AM 28.8848 116.4436 201° Southwest  Level Estimated
Sat 09:13:00 AM 28.7859 116.3995 201° Southwest  Level Estimated
Sat 09:14:00 AM 28.6871 116.3555 201° Southwest  Level Estimated
Sat 09:15:00 AM 28.5883 116.3116 201° Southwest  Level Estimated
Sat 09:16:00 AM 28.4895 116.2677 201° Southwest  Level Estimated
Sat 09:17:00 AM 28.3906 116.2240 201° Southwest  Level Estimated
Sat 09:18:00 AM 28.2917 116.1803 201° Southwest  Level Estimated
Sat 09:19:00 AM 28.1929 116.1367 201° Southwest  Level Estimated
Sat 09:20:00 AM 28.0940 116.0932 201° Southwest  Level Estimated
Sat 09:21:00 AM 27.9951 116.0497 201° Southwest  Level Estimated
Sat 09:22:00 AM 27.8961 116.0064 201° Southwest  Level Estimated
Sat 09:23:00 AM 27.7972 115.9631 201° Southwest  Level Estimated
Sat 09:24:00 AM 27.6982 115.9199 201° Southwest  Level Estimated
Sat 09:25:00 AM 27.5993 115.8768 201° Southwest  Level Estimated
Sat 09:26:00 AM 27.5003 115.8337 201° Southwest  Level Estimated
Sat 09:27:00 AM 27.4013 115.7907 201° Southwest  Level Estimated
Sat 09:28:00 AM 27.3023 115.7479 201° Southwest  Level Estimated
Sat 09:29:00 AM 27.2033 115.7050 201° Southwest  Level Estimated
Sat 09:30:00 AM 27.1043 115.6623 201° Southwest  Level Estimated
Sat 09:31:00 AM 27.0052 115.6197 201° Southwest  Level Estimated
Sat 09:32:00 AM 26.9062 115.5771 201° Southwest  Level Estimated
Sat 09:33:00 AM 26.8071 115.5346 201° Southwest  Level Estimated
Sat 09:34:00 AM 26.7080 115.4921 201° Southwest  Level Estimated
Sat 09:35:00 AM 26.6089 115.4498 201° Southwest  Level Estimated
Sat 09:36:00 AM 26.5098 115.4075 201° Southwest  Level Estimated
Sat 09:37:00 AM 26.4107 115.3652 201° Southwest  Level Estimated
Sat 09:38:00 AM 26.3116 115.3231 201° Southwest  Level Estimated
Sat 09:39:00 AM 26.2124 115.2810 201° Southwest  Level Estimated
Sat 09:40:00 AM 26.1133 115.2390 201° Southwest  Level Estimated
Sat 09:41:00 AM 26.0141 115.1971 201° Southwest  Level Estimated
Sat 09:42:00 AM 25.9149 115.1552 201° Southwest  Level Estimated
Sat 09:43:00 AM 25.8157 115.1134 201° Southwest  Level Estimated
Sat 09:44:00 AM 25.7165 115.0717 201° Southwest  Level Estimated
Sat 09:45:00 AM 25.6173 115.0301 201° Southwest  Level Estimated
Sat 09:46:00 AM 25.5181 114.9885 201° Southwest  Level Estimated
Sat 09:47:00 AM 25.4188 114.9470 201° Southwest  Level Estimated
Sat 09:48:00 AM 25.3196 114.9055 201° Southwest  Level Estimated
Sat 09:49:00 AM 25.2203 114.8642 201° Southwest  Level Estimated
Sat 09:50:00 AM 25.1210 114.8228 201° Southwest  Level Estimated
Sat 09:51:00 AM 25.0218 114.7816 201° Southwest  Level Estimated
Sat 09:52:00 AM 24.9225 114.7404 201° Southwest  Level Estimated
Sat 09:53:00 AM 24.8232 114.6993 201° Southwest  Level Estimated
Sat 09:54:00 AM 24.7238 114.6583 201° Southwest  Level Estimated
Sat 09:55:00 AM 24.6245 114.6173 201° Southwest  Level Estimated
Sat 09:56:00 AM 24.5252 114.5764 201° Southwest  Level Estimated
Sat 09:57:00 AM 24.4258 114.5355 201° Southwest  Level Estimated
Sat 09:58:00 AM 24.3265 114.4948 201° Southwest  Level Estimated
Sat 09:59:00 AM 24.2271 114.4540 200° South  Level Estimated
Sat 10:00:00 AM 24.1277 114.4134 200° South  Level Estimated
Sat 10:01:00 AM 24.0283 114.3728 200° South  Level Estimated
Sat 10:02:00 AM 23.9289 114.3323 200° South  Level Estimated
Sat 10:03:00 AM 23.8295 114.2918 200° South  Level Estimated
Sat 10:04:00 AM 23.7300 114.2514 200° South  Level Estimated
Sat 10:05:00 AM 23.6306 114.2110 200° South  Level Estimated
Sat 10:06:00 AM 23.5311 114.1708 200° South  Level Estimated
Sat 10:07:00 AM 23.4317 114.1305 200° South  Level Estimated
Sat 10:08:00 AM 23.3322 114.0904 200° South  Level Estimated
Sat 10:09:00 AM 23.2327 114.0503 200° South  Level Estimated
Sat 10:10:00 AM 23.1332 114.0102 200° South  Level Estimated
Sat 10:11:00 AM 23.0337 113.9702 200° South  Level Estimated
Sat 10:12:00 AM 22.9342 113.9303 200° South  Level Estimated
Sat 10:13:00 AM 22.8347 113.8904 200° South  Level Estimated
Sat 10:14:00 AM 22.7352 113.8506 200° South  Level Estimated
Sat 10:15:00 AM 22.6395 113.8124 200° South  Level Estimated
Sat 10:16:00 AM 22.6395 113.8124 25° Northeast  Level Estimated
Sat 10:17:00 AM 22.6395 113.8124 25° Northeast  Level Estimated
Sat 10:18:00 AM 22.6395 113.8124 25° Northeast  Level Estimated
Sat 10:19:00 AM 22.6395 113.8124 25° Northeast  Level Estimated
Sat 10:20:00 AM 22.6395 113.8124 25° Northeast  Level Estimated
Sat 10:21:00 AM 22.6395 113.8124 25° Northeast  Level Estimated
Sat 10:22:00 AM 22.6395 113.8124 25° Northeast  Level Estimated
Sat 10:23:00 AM 22.6395 113.8124 25° Northeast  Level Estimated
Sat 10:24:00 AM 22.6395 113.8124 25° Northeast  Level Estimated
Sat 10:25:00 AM 22.6395 113.8124 25° Northeast  Level Estimated
Sat 10:26:00 AM 22.6395 113.8124 25° Northeast  Level Estimated

Login

Don't have an account? Register now (free) for customized features, flight alerts, and more!